createdAt,value
2019-02-28T00:00:11.327Z,7.20
2019-02-28T00:01:11.675Z,7.90
2019-02-28T00:02:10.577Z,7.00
2019-02-28T00:03:10.605Z,7.60
2019-02-28T00:04:10.543Z,7.20
2019-02-28T00:05:10.545Z,7.40
2019-02-28T00:06:12.557Z,7.10
2019-02-28T00:07:10.907Z,6.90
2019-02-28T00:08:10.521Z,7.80
2019-02-28T00:09:10.502Z,7.20
2019-02-28T00:10:10.512Z,7.10
2019-02-28T00:11:10.482Z,7.50
2019-02-28T00:12:13.520Z,7.30
2019-02-28T00:13:10.462Z,7.20
2019-02-28T00:14:10.955Z,9.00
2019-02-28T00:15:10.437Z,8.10
2019-02-28T00:16:10.455Z,7.80
2019-02-28T00:17:10.412Z,7.80
2019-02-28T00:18:10.484Z,8.60
2019-02-28T00:19:10.392Z,7.70
2019-02-28T00:20:10.371Z,7.20
2019-02-28T00:21:10.790Z,7.60
2019-02-28T00:22:11.352Z,7.40
2019-02-28T00:23:10.357Z,7.60
2019-02-28T00:24:10.600Z,7.80
2019-02-28T00:25:10.380Z,8.40
2019-02-28T00:26:11.578Z,7.70
2019-02-28T00:27:10.303Z,7.40
2019-02-28T00:28:11.662Z,8.30
2019-02-28T00:29:10.283Z,8.10
2019-02-28T00:30:10.341Z,7.70
2019-02-28T00:31:14.374Z,7.10
2019-02-28T00:32:11.266Z,7.00
2019-02-28T00:33:10.238Z,7.00
2019-02-28T00:34:10.228Z,6.70
2019-02-28T00:35:13.498Z,7.80
2019-02-28T00:36:10.356Z,7.60
2019-02-28T00:37:10.262Z,7.60
2019-02-28T00:38:10.201Z,7.50
2019-02-28T00:39:10.181Z,7.30
2019-02-28T00:40:10.175Z,7.20
2019-02-28T00:41:10.308Z,8.20
2019-02-28T00:42:10.544Z,8.10
2019-02-28T00:43:10.196Z,7.60
2019-02-28T00:44:10.128Z,8.00
2019-02-28T00:45:10.123Z,8.50
2019-02-28T00:46:11.030Z,6.90
2019-02-28T00:47:11.045Z,6.80
2019-02-28T00:48:10.136Z,7.40
2019-02-28T00:49:10.588Z,7.60
2019-02-28T00:50:10.057Z,7.10
2019-02-28T00:51:10.084Z,7.40
2019-02-28T00:52:10.090Z,7.40
2019-02-28T00:53:10.033Z,7.10
2019-02-28T00:54:10.322Z,7.70
2019-02-28T00:55:10.023Z,8.00
2019-02-28T00:56:10.396Z,7.40
2019-02-28T00:57:09.986Z,7.40
2019-02-28T00:58:10.573Z,7.60
2019-02-28T00:59:09.993Z,8.20
2019-02-28T01:00:10.032Z,8.00
2019-02-28T01:01:11.499Z,7.80
2019-02-28T01:02:09.932Z,8.30
2019-02-28T01:03:10.445Z,7.40
2019-02-28T01:04:09.936Z,8.00
2019-02-28T01:05:09.900Z,8.00
2019-02-28T01:06:10.666Z,8.10
2019-02-28T01:07:09.900Z,8.20
2019-02-28T01:08:09.874Z,7.90
2019-02-28T01:09:09.868Z,7.70
2019-02-28T01:10:10.311Z,7.30
2019-02-28T01:11:10.388Z,7.20
2019-02-28T01:12:19.391Z,7.50
2019-02-28T01:13:09.823Z,7.20
2019-02-28T01:14:09.810Z,7.50
2019-02-28T01:15:09.999Z,8.00
2019-02-28T01:16:09.841Z,6.80
2019-02-28T01:17:11.998Z,7.10
2019-02-28T01:18:09.808Z,7.80
2019-02-28T01:19:10.215Z,7.70
2019-02-28T01:20:15.092Z,7.70
2019-02-28T01:21:10.739Z,7.20
2019-02-28T01:22:09.768Z,7.40
2019-02-28T01:23:09.713Z,7.90
2019-02-28T01:24:13.048Z,8.10
2019-02-28T01:25:09.688Z,8.30
2019-02-28T01:26:11.765Z,7.70
2019-02-28T01:27:09.682Z,8.70
2019-02-28T01:28:09.662Z,8.50
2019-02-28T01:29:09.685Z,9.30
2019-02-28T01:30:09.695Z,8.90
2019-02-28T01:31:11.581Z,8.90
2019-02-28T01:32:09.622Z,8.70
2019-02-28T01:33:09.626Z,8.80
2019-02-28T01:34:09.611Z,9.00
2019-02-28T01:35:09.612Z,8.70
2019-02-28T01:36:12.213Z,8.70
2019-02-28T01:37:10.897Z,7.70
2019-02-28T01:38:09.561Z,8.90
2019-02-28T01:39:10.529Z,8.60
2019-02-28T01:40:09.566Z,8.50
2019-02-28T01:41:11.193Z,9.20
2019-02-28T01:42:09.592Z,9.90
2019-02-28T01:43:09.546Z,9.60
2019-02-28T01:44:09.895Z,9.70
2019-02-28T01:45:09.889Z,9.30
2019-02-28T01:46:09.522Z,10.10
2019-02-28T01:47:09.471Z,10.00
2019-02-28T01:48:09.530Z,10.00
2019-02-28T01:49:09.445Z,10.50
2019-02-28T01:50:09.448Z,9.80
2019-02-28T01:51:09.452Z,10.70
2019-02-28T01:52:10.073Z,11.00
2019-02-28T01:53:09.414Z,10.30
2019-02-28T01:54:09.467Z,11.30
2019-02-28T01:55:09.395Z,10.60
2019-02-28T01:56:09.368Z,11.20
2019-02-28T01:57:10.056Z,11.70
2019-02-28T01:58:09.380Z,11.10
2019-02-28T01:59:09.346Z,11.70
2019-02-28T02:00:09.376Z,10.30
2019-02-28T02:01:09.325Z,10.70
2019-02-28T02:02:09.397Z,11.50
2019-02-28T02:03:10.185Z,10.00
2019-02-28T02:04:09.296Z,9.90
2019-02-28T02:05:09.269Z,9.80
2019-02-28T02:06:09.330Z,11.10
2019-02-28T02:07:09.260Z,10.20
2019-02-28T02:08:09.291Z,10.60
2019-02-28T02:09:11.060Z,10.40
2019-02-28T02:10:09.220Z,10.80
2019-02-28T02:11:09.212Z,11.10
2019-02-28T02:12:09.255Z,10.40
2019-02-28T02:13:09.194Z,11.00
2019-02-28T02:14:10.984Z,11.50
2019-02-28T02:15:09.481Z,10.90
2019-02-28T02:16:09.197Z,11.40
2019-02-28T02:17:09.154Z,11.40
2019-02-28T02:18:10.024Z,11.00
2019-02-28T02:19:09.133Z,11.00
2019-02-28T02:20:10.025Z,12.00
2019-02-28T02:21:09.097Z,11.50
2019-02-28T02:22:10.109Z,12.40
2019-02-28T02:23:09.128Z,12.70
2019-02-28T02:24:09.367Z,11.10
2019-02-28T02:25:09.072Z,10.60
2019-02-28T02:26:11.294Z,11.80
2019-02-28T02:27:09.365Z,11.30
2019-02-28T02:28:09.025Z,12.20
2019-02-28T02:29:09.553Z,12.00
2019-02-28T02:30:15.256Z,12.00
2019-02-28T02:31:10.062Z,12.00
2019-02-28T02:32:09.018Z,11.60
2019-02-28T02:33:13.527Z,11.40
2019-02-28T02:34:10.305Z,12.60
2019-02-28T02:35:08.963Z,11.70
2019-02-28T02:36:09.159Z,11.40
2019-02-28T02:37:08.946Z,11.90
2019-02-28T02:38:08.930Z,11.20
2019-02-28T02:39:08.928Z,12.30
2019-02-28T02:40:08.928Z,12.10
2019-02-28T02:41:09.206Z,12.20
2019-02-28T02:42:11.295Z,12.70
2019-02-28T02:43:08.895Z,11.70
2019-02-28T02:44:08.869Z,11.40
2019-02-28T02:45:08.854Z,12.10
2019-02-28T02:46:08.848Z,12.90
2019-02-28T02:47:08.852Z,11.80
2019-02-28T02:48:09.226Z,12.60
2019-02-28T02:49:08.887Z,12.70
2019-02-28T02:50:08.811Z,12.80
2019-02-28T02:51:11.328Z,12.20
2019-02-28T02:52:08.829Z,12.70
2019-02-28T02:53:08.787Z,12.10
2019-02-28T02:54:08.817Z,12.30
2019-02-28T02:55:09.088Z,12.30
2019-02-28T02:56:08.776Z,12.80
2019-02-28T02:57:08.742Z,12.50
2019-02-28T02:58:08.727Z,11.80
2019-02-28T02:59:09.548Z,12.00
2019-02-28T03:01:34.261Z,11.10
2019-02-28T03:02:34.383Z,13.50
2019-02-28T03:03:33.914Z,12.40
2019-02-28T03:04:33.903Z,13.10
2019-02-28T03:05:35.946Z,12.60
2019-02-28T03:06:33.882Z,12.40
2019-02-28T03:07:34.248Z,13.40
2019-02-28T03:08:36.330Z,12.80
2019-02-28T03:09:33.857Z,12.80
2019-02-28T03:10:33.849Z,12.40
2019-02-28T03:11:33.846Z,12.30
2019-02-28T03:12:33.815Z,13.20
2019-02-28T03:13:42.272Z,12.00
2019-02-28T03:14:34.802Z,12.30
2019-02-28T03:15:33.787Z,11.50
2019-02-28T03:16:34.643Z,13.00
2019-02-28T03:17:33.783Z,12.60
2019-02-28T03:18:33.759Z,12.40
2019-02-28T03:19:34.680Z,12.50
2019-02-28T03:20:34.076Z,12.00
2019-02-28T03:21:33.730Z,11.90
2019-02-28T03:22:33.725Z,12.40
2019-02-28T03:23:37.843Z,12.30
2019-02-28T03:24:34.743Z,11.50
2019-02-28T03:25:33.679Z,12.50
2019-02-28T03:26:33.668Z,12.60
2019-02-28T03:27:33.998Z,12.60
2019-02-28T03:28:33.668Z,12.60
2019-02-28T03:29:33.643Z,12.40
2019-02-28T03:30:34.065Z,12.50
2019-02-28T03:31:33.629Z,11.90
2019-02-28T03:32:40.409Z,12.70
2019-02-28T03:33:34.628Z,12.20
2019-02-28T03:34:33.874Z,11.80
2019-02-28T03:35:43.274Z,11.60
2019-02-28T03:36:34.650Z,11.20
2019-02-28T03:37:34.602Z,12.40
2019-02-28T03:38:33.538Z,12.10
2019-02-28T03:39:33.561Z,11.60
2019-02-28T03:40:39.812Z,12.10
2019-02-28T03:41:34.824Z,11.70
2019-02-28T03:42:33.555Z,12.90
2019-02-28T03:43:33.518Z,11.00
2019-02-28T03:44:33.480Z,12.00
2019-02-28T03:45:35.083Z,11.70
2019-02-28T03:46:33.452Z,12.60
2019-02-28T03:47:33.458Z,11.80
2019-02-28T03:48:35.916Z,12.20
2019-02-28T03:49:33.431Z,12.50
2019-02-28T03:50:33.411Z,11.90
2019-02-28T03:51:33.441Z,12.50
2019-02-28T03:52:33.436Z,12.40
2019-02-28T03:53:33.402Z,12.30
2019-02-28T03:54:33.892Z,12.60
2019-02-28T03:55:39.846Z,11.60
2019-02-28T03:56:34.359Z,11.60
2019-02-28T03:57:33.403Z,12.10
2019-02-28T03:58:33.328Z,12.60
2019-02-28T03:59:33.326Z,11.90
2019-02-28T04:00:34.230Z,11.70
2019-02-28T04:01:33.628Z,11.80
2019-02-28T04:02:33.309Z,10.60
2019-02-28T04:03:34.633Z,10.30
2019-02-28T04:04:33.269Z,11.00
2019-02-28T04:05:33.278Z,11.40
2019-02-28T04:06:39.581Z,10.30
2019-02-28T04:07:34.743Z,9.40
2019-02-28T04:08:33.547Z,9.70
2019-02-28T04:09:33.207Z,10.50
2019-02-28T04:10:33.209Z,9.60
2019-02-28T04:11:33.188Z,10.10
2019-02-28T04:12:33.566Z,9.40
2019-02-28T04:13:33.172Z,11.20
2019-02-28T04:14:34.392Z,12.30
2019-02-28T04:15:33.454Z,12.20
2019-02-28T04:16:33.152Z,11.20
2019-02-28T04:17:33.142Z,12.10
2019-02-28T04:18:33.190Z,11.70
2019-02-28T04:19:33.142Z,10.70
2019-02-28T04:20:37.337Z,11.60
2019-02-28T04:21:33.106Z,11.50
2019-02-28T04:22:33.363Z,11.70
2019-02-28T04:23:36.108Z,12.80
2019-02-28T04:24:33.173Z,12.10
2019-02-28T04:25:33.049Z,11.60
2019-02-28T04:26:33.022Z,12.90
2019-02-28T04:27:33.039Z,11.50
2019-02-28T04:28:33.027Z,12.00
2019-02-28T04:29:33.332Z,11.80
2019-02-28T04:30:33.098Z,12.30
2019-02-28T04:31:32.991Z,12.10
2019-02-28T04:32:32.991Z,11.80
2019-02-28T04:33:37.648Z,11.60
2019-02-28T04:34:33.957Z,12.40
2019-02-28T04:35:32.938Z,12.20
2019-02-28T04:36:35.841Z,11.70
2019-02-28T04:37:32.933Z,12.00
2019-02-28T04:38:32.945Z,12.30
2019-02-28T04:39:32.898Z,12.70
2019-02-28T04:40:32.898Z,12.70
2019-02-28T04:41:33.584Z,13.50
2019-02-28T04:42:32.911Z,12.20
2019-02-28T04:43:33.163Z,12.30
2019-02-28T04:44:32.841Z,12.50
2019-02-28T04:45:32.861Z,13.50
2019-02-28T04:46:32.822Z,12.70
2019-02-28T04:47:32.815Z,13.00
2019-02-28T04:48:32.868Z,13.40
2019-02-28T04:49:32.816Z,12.20
2019-02-28T04:50:33.087Z,12.40
2019-02-28T04:51:32.788Z,12.30
2019-02-28T04:52:32.772Z,12.70
2019-02-28T04:53:32.753Z,12.60
2019-02-28T04:54:32.792Z,13.30
2019-02-28T04:55:34.250Z,12.90
2019-02-28T04:56:32.720Z,12.40
2019-02-28T04:57:33.082Z,12.30
2019-02-28T04:58:32.702Z,12.20
2019-02-28T04:59:34.372Z,12.40
2019-02-28T05:00:32.760Z,14.40
2019-02-28T05:01:32.667Z,13.90
2019-02-28T05:02:32.666Z,13.40
2019-02-28T05:03:32.642Z,12.90
2019-02-28T05:04:33.230Z,12.90
2019-02-28T05:05:32.620Z,13.00
2019-02-28T05:06:32.700Z,12.50
2019-02-28T05:07:32.606Z,13.90
2019-02-28T05:08:32.605Z,12.80
2019-02-28T05:09:32.592Z,13.30
2019-02-28T05:10:32.567Z,13.50
2019-02-28T05:11:33.690Z,13.50
2019-02-28T05:12:32.613Z,15.10
2019-02-28T05:13:32.552Z,13.30
2019-02-28T05:14:32.530Z,14.20
2019-02-28T05:15:37.406Z,14.50
2019-02-28T05:16:33.530Z,14.30
2019-02-28T05:17:32.507Z,14.50
2019-02-28T05:18:32.827Z,14.40
2019-02-28T05:19:35.700Z,14.40
2019-02-28T05:20:32.914Z,14.40
2019-02-28T05:21:32.455Z,13.50
2019-02-28T05:22:32.441Z,12.30
2019-02-28T05:23:35.783Z,12.30
2019-02-28T05:24:32.767Z,12.90
2019-02-28T05:25:32.880Z,12.10
2019-02-28T05:26:32.401Z,11.80
2019-02-28T05:27:35.518Z,13.10
2019-02-28T05:28:33.423Z,12.20
2019-02-28T05:29:32.399Z,14.10
2019-02-28T05:30:32.410Z,15.10
2019-02-28T05:31:32.669Z,15.60
2019-02-28T05:32:35.644Z,16.00
2019-02-28T05:33:32.329Z,15.80
2019-02-28T05:34:33.062Z,15.40
2019-02-28T05:35:32.369Z,15.10
2019-02-28T05:36:34.664Z,14.60
2019-02-28T05:37:33.281Z,14.80
2019-02-28T05:38:32.739Z,16.10
2019-02-28T05:39:32.297Z,14.70
2019-02-28T05:40:32.262Z,15.40
2019-02-28T05:41:32.250Z,15.10
2019-02-28T05:42:32.279Z,14.60
2019-02-28T05:43:32.907Z,13.80
2019-02-28T05:44:32.247Z,12.70
2019-02-28T05:45:32.212Z,12.50
2019-02-28T05:46:35.082Z,12.80
2019-02-28T05:47:33.103Z,11.90
2019-02-28T05:48:32.243Z,11.70
2019-02-28T05:49:32.163Z,11.80
2019-02-28T05:50:32.476Z,12.80
2019-02-28T05:51:32.143Z,12.30
2019-02-28T05:52:33.758Z,12.50
2019-02-28T05:53:32.138Z,11.30
2019-02-28T05:54:32.147Z,12.80
2019-02-28T05:55:32.580Z,12.50
2019-02-28T05:56:33.313Z,11.80
2019-02-28T05:57:32.080Z,12.40
2019-02-28T05:58:32.087Z,12.10
2019-02-28T05:59:32.088Z,12.30
2019-02-28T06:00:33.445Z,13.10
2019-02-28T06:01:32.060Z,13.10
2019-02-28T06:02:32.027Z,14.40
2019-02-28T06:03:32.467Z,13.90
2019-02-28T06:04:34.142Z,13.60
2019-02-28T06:05:33.126Z,12.90
2019-02-28T06:06:34.617Z,12.80
2019-02-28T06:07:32.012Z,12.70
2019-02-28T06:08:38.682Z,15.00
2019-02-28T06:09:33.607Z,15.90
2019-02-28T06:10:31.956Z,15.60
2019-02-28T06:11:35.541Z,15.50
2019-02-28T06:12:31.919Z,16.70
2019-02-28T06:13:31.926Z,15.70
2019-02-28T06:14:31.927Z,16.70
2019-02-28T06:15:36.931Z,15.10
2019-02-28T06:16:32.050Z,14.80
2019-02-28T06:17:32.249Z,13.60
2019-02-28T06:18:33.576Z,13.50
2019-02-28T06:19:32.297Z,14.60
2019-02-28T06:20:31.958Z,12.90
2019-02-28T06:21:32.622Z,13.90
2019-02-28T06:22:36.240Z,14.40
2019-02-28T06:23:32.361Z,15.00
2019-02-28T06:24:31.795Z,13.30
2019-02-28T06:25:32.099Z,15.50
2019-02-28T06:26:33.001Z,16.50
2019-02-28T06:27:40.845Z,15.50
2019-02-28T06:28:32.817Z,14.40
2019-02-28T06:29:36.775Z,14.00
2019-02-28T06:30:33.507Z,14.10
2019-02-28T06:31:31.737Z,14.50
2019-02-28T06:32:32.040Z,14.70
2019-02-28T06:33:33.571Z,15.10
2019-02-28T06:34:33.345Z,14.90
2019-02-28T06:35:31.966Z,14.90
2019-02-28T06:36:33.012Z,14.70
2019-02-28T06:37:35.362Z,16.10
2019-02-28T06:38:33.181Z,18.90
2019-02-28T06:39:31.759Z,22.50
2019-02-28T06:40:33.010Z,21.00
2019-02-28T06:41:31.789Z,20.10
2019-02-28T06:42:33.670Z,18.80
2019-02-28T06:43:32.353Z,19.10
2019-02-28T06:44:34.493Z,17.90
2019-02-28T06:45:36.897Z,19.10
2019-02-28T06:46:33.741Z,17.20
2019-02-28T06:47:31.608Z,19.20
2019-02-28T06:48:32.542Z,18.70
2019-02-28T06:49:31.746Z,20.20
2019-02-28T06:50:44.659Z,22.60
2019-02-28T06:51:36.706Z,22.90
2019-02-28T06:52:33.725Z,22.90
2019-02-28T06:53:35.681Z,22.70
2019-02-28T06:54:32.805Z,21.30
2019-02-28T06:55:33.113Z,23.60
2019-02-28T06:56:33.447Z,22.40
2019-02-28T06:57:33.088Z,22.60
2019-02-28T06:58:33.958Z,22.90
2019-02-28T06:59:31.731Z,21.80
2019-02-28T07:00:33.151Z,22.00
2019-02-28T07:01:31.882Z,23.00
2019-02-28T07:02:32.223Z,23.40
2019-02-28T07:03:35.211Z,21.70
2019-02-28T07:04:55.195Z,21.00
2019-02-28T07:05:32.752Z,20.60
2019-02-28T07:06:35.722Z,18.80
2019-02-28T07:07:33.164Z,19.30
2019-02-28T07:08:32.075Z,20.60
2019-02-28T07:09:33.621Z,19.10
2019-02-28T07:10:31.622Z,20.80
2019-02-28T07:11:31.713Z,20.10
2019-02-28T07:12:33.106Z,21.10
2019-02-28T07:13:31.313Z,20.60
2019-02-28T07:14:31.267Z,20.20
2019-02-28T07:15:31.287Z,21.70
2019-02-28T07:16:34.660Z,20.10
2019-02-28T07:17:32.323Z,22.00
2019-02-28T07:18:33.506Z,21.60
2019-02-28T07:19:31.402Z,22.80
2019-02-28T07:20:34.539Z,22.80
2019-02-28T07:21:31.421Z,23.10
2019-02-28T07:22:31.396Z,22.80
2019-02-28T07:23:31.268Z,23.80
2019-02-28T07:24:31.181Z,24.50
2019-02-28T07:25:33.098Z,25.40
2019-02-28T07:26:31.156Z,24.90
2019-02-28T07:27:31.156Z,24.90
2019-02-28T07:28:36.279Z,23.50
2019-02-28T07:29:32.195Z,23.60
2019-02-28T07:30:31.117Z,24.40
2019-02-28T07:31:38.602Z,24.40
2019-02-28T07:32:34.279Z,23.70
2019-02-28T07:33:31.312Z,22.70
2019-02-28T07:34:32.078Z,22.90
2019-02-28T07:35:34.195Z,23.70
2019-02-28T07:36:32.324Z,24.60
2019-02-28T07:37:31.297Z,24.10
2019-02-28T07:38:36.241Z,24.10
2019-02-28T07:39:31.486Z,25.10
2019-02-28T07:40:33.261Z,24.00
2019-02-28T07:41:31.071Z,23.80
2019-02-28T07:42:33.748Z,25.00
2019-02-28T07:43:32.520Z,24.50
2019-02-28T07:44:33.986Z,24.20
2019-02-28T07:45:33.089Z,24.00
2019-02-28T07:46:31.977Z,26.00
2019-02-28T07:47:32.506Z,24.20
2019-02-28T07:48:31.687Z,24.60
2019-02-28T07:49:35.876Z,22.80
2019-02-28T07:50:32.562Z,24.60
2019-02-28T07:51:31.778Z,24.20
2019-02-28T07:52:33.480Z,24.10
2019-02-28T07:53:32.538Z,24.20
2019-02-28T07:54:31.785Z,25.00
2019-02-28T07:55:31.102Z,24.70
2019-02-28T07:56:31.311Z,24.60
2019-02-28T07:57:30.947Z,25.50
2019-02-28T07:58:33.454Z,24.50
2019-02-28T07:59:30.879Z,24.40
2019-02-28T08:00:30.793Z,26.60
2019-02-28T08:01:31.176Z,25.70
2019-02-28T08:02:35.727Z,25.80
2019-02-28T08:03:31.828Z,26.60
2019-02-28T08:04:32.025Z,27.50
2019-02-28T08:05:31.174Z,29.90
2019-02-28T08:06:30.717Z,27.40
2019-02-28T08:07:32.148Z,27.50
2019-02-28T08:08:33.178Z,26.50
2019-02-28T08:09:33.610Z,24.30
2019-02-28T08:10:52.295Z,23.90
2019-02-28T08:11:31.219Z,24.90
2019-02-28T08:12:31.413Z,24.50
2019-02-28T08:13:30.647Z,25.70
2019-02-28T08:14:30.628Z,24.70
2019-02-28T08:15:31.518Z,23.70
2019-02-28T08:16:33.989Z,25.30
2019-02-28T08:17:30.595Z,25.90
2019-02-28T08:18:31.673Z,25.10
2019-02-28T08:19:30.605Z,24.20
2019-02-28T08:20:33.942Z,25.20
2019-02-28T08:21:30.590Z,25.30
2019-02-28T08:22:31.380Z,24.70
2019-02-28T08:23:31.363Z,25.90
2019-02-28T08:24:30.531Z,24.90
2019-02-28T08:25:30.503Z,25.70
2019-02-28T08:26:30.503Z,25.70
2019-02-28T08:27:30.484Z,26.50
2019-02-28T08:28:35.484Z,24.20
2019-02-28T08:29:32.493Z,26.90
2019-02-28T08:30:30.459Z,27.30
2019-02-28T08:31:31.990Z,32.80
2019-02-28T08:32:30.450Z,26.20
2019-02-28T08:33:30.438Z,25.90
2019-02-28T08:34:30.681Z,25.70
2019-02-28T08:35:34.012Z,26.10
2019-02-28T08:36:31.523Z,25.50
2019-02-28T08:37:30.398Z,27.30
2019-02-28T08:38:34.269Z,26.00
2019-02-28T08:39:30.392Z,26.90
2019-02-28T08:40:30.598Z,27.60
2019-02-28T08:41:30.367Z,26.80
2019-02-28T08:42:30.405Z,26.10
2019-02-28T08:43:30.731Z,27.10
2019-02-28T08:44:30.323Z,26.30
2019-02-28T08:45:33.486Z,27.10
2019-02-28T08:46:30.428Z,26.90
2019-02-28T08:47:30.458Z,27.10
2019-02-28T08:48:34.817Z,27.60
2019-02-28T08:49:30.269Z,28.20
2019-02-28T08:50:30.584Z,27.90
2019-02-28T08:51:31.038Z,28.30
2019-02-28T08:52:30.303Z,26.80
2019-02-28T08:53:30.228Z,28.20
2019-02-28T08:54:30.234Z,28.90
2019-02-28T08:55:30.206Z,27.40
2019-02-28T08:56:32.262Z,29.00
2019-02-28T08:57:30.783Z,30.20
2019-02-28T08:58:30.224Z,27.30
2019-02-28T08:59:30.153Z,27.70
2019-02-28T09:00:32.613Z,27.70
2019-02-28T09:01:31.057Z,27.50
2019-02-28T09:02:31.029Z,29.30
2019-02-28T09:03:30.256Z,29.80
2019-02-28T09:04:40.797Z,27.10
2019-02-28T09:05:31.117Z,28.00
2019-02-28T09:06:30.119Z,28.00
2019-02-28T09:07:30.075Z,29.30
2019-02-28T09:08:31.038Z,29.20
2019-02-28T09:09:56.231Z,29.20
2019-02-28T09:10:30.108Z,28.80
2019-02-28T09:11:30.027Z,28.40
2019-02-28T09:12:33.287Z,28.70
2019-02-28T09:13:30.043Z,30.80
2019-02-28T09:14:30.029Z,28.60
2019-02-28T09:15:31.291Z,30.00
2019-02-28T09:16:30.322Z,29.60
2019-02-28T09:17:29.957Z,28.30
2019-02-28T09:18:29.956Z,28.80
2019-02-28T09:19:32.612Z,29.50
2019-02-28T09:20:30.989Z,28.90
2019-02-28T09:21:29.951Z,30.60
2019-02-28T09:22:29.936Z,28.50
2019-02-28T09:23:30.560Z,31.40
2019-02-28T09:24:29.911Z,29.20
2019-02-28T09:25:29.905Z,30.30
2019-02-28T09:26:31.275Z,29.00
2019-02-28T09:27:30.492Z,29.20
2019-02-28T09:28:30.239Z,27.60
2019-02-28T09:29:29.852Z,29.80
2019-02-28T09:30:30.588Z,29.60
2019-02-28T09:31:29.833Z,30.50
2019-02-28T09:32:29.848Z,30.80
2019-02-28T09:33:29.853Z,28.20
2019-02-28T09:34:31.417Z,31.50
2019-02-28T09:35:29.772Z,28.50
2019-02-28T09:36:29.783Z,29.80
2019-02-28T09:37:30.550Z,31.10
2019-02-28T09:38:29.752Z,29.60
2019-02-28T09:39:30.079Z,29.90
2019-02-28T09:40:30.617Z,29.50
2019-02-28T09:41:30.587Z,29.40
2019-02-28T09:42:29.692Z,30.40
2019-02-28T09:43:29.723Z,28.50
2019-02-28T09:44:31.400Z,28.50
2019-02-28T09:45:29.721Z,28.80
2019-02-28T09:46:29.656Z,30.00
2019-02-28T09:47:30.123Z,29.90
2019-02-28T09:48:30.697Z,29.00
2019-02-28T09:49:29.607Z,28.70
2019-02-28T09:50:29.614Z,28.70
2019-02-28T09:51:31.980Z,30.70
2019-02-28T09:52:29.621Z,30.40
2019-02-28T09:53:29.583Z,29.80
2019-02-28T09:54:30.483Z,32.30
2019-02-28T09:55:34.292Z,30.10
2019-02-28T09:56:30.613Z,29.60
2019-02-28T09:57:30.261Z,29.90
2019-02-28T09:58:30.079Z,29.90
2019-02-28T09:59:29.517Z,29.90
2019-02-28T10:00:29.512Z,29.10
2019-02-28T10:01:29.570Z,30.90
2019-02-28T10:02:29.637Z,29.80
2019-02-28T10:03:29.480Z,29.90
2019-02-28T10:04:30.537Z,28.90
2019-02-28T10:05:31.048Z,30.80
2019-02-28T10:06:29.475Z,31.00
2019-02-28T10:07:31.486Z,30.50
2019-02-28T10:08:29.515Z,28.00
2019-02-28T10:09:29.423Z,30.30
2019-02-28T10:10:29.379Z,30.00
2019-02-28T10:11:31.757Z,29.20
2019-02-28T10:12:29.368Z,29.90
2019-02-28T10:13:30.941Z,29.40
2019-02-28T10:14:29.807Z,29.80
2019-02-28T10:15:30.041Z,30.90
2019-02-28T10:16:29.351Z,30.40
2019-02-28T10:17:29.742Z,30.40
2019-02-28T10:18:29.306Z,29.70
2019-02-28T10:19:29.310Z,30.40
2019-02-28T10:20:29.343Z,31.50
2019-02-28T10:21:29.313Z,31.20
2019-02-28T10:22:29.424Z,29.90
2019-02-28T10:23:29.297Z,30.70
2019-02-28T10:24:31.517Z,30.30
2019-02-28T10:25:32.031Z,33.20
2019-02-28T10:26:30.509Z,32.70
2019-02-28T10:27:29.588Z,32.50
2019-02-28T10:28:29.203Z,33.20
2019-02-28T10:29:29.218Z,33.70
2019-02-28T10:30:32.097Z,32.00
2019-02-28T10:31:36.240Z,33.70
2019-02-28T10:32:30.207Z,33.50
2019-02-28T10:33:29.479Z,33.40
2019-02-28T10:34:29.294Z,34.60
2019-02-28T10:35:29.144Z,31.80
2019-02-28T10:36:29.147Z,31.50
2019-02-28T10:37:30.046Z,31.80
2019-02-28T10:38:29.441Z,32.80
2019-02-28T10:39:30.042Z,31.80
2019-02-28T10:40:30.037Z,31.90
2019-02-28T10:41:31.102Z,33.80
2019-02-28T10:42:29.051Z,32.30
2019-02-28T10:43:29.064Z,33.90
2019-02-28T10:44:30.730Z,33.40
2019-02-28T10:45:29.533Z,33.50
2019-02-28T10:46:29.015Z,33.20
2019-02-28T10:47:29.800Z,32.50
2019-02-28T10:48:29.510Z,32.70
2019-02-28T10:49:29.002Z,34.30
2019-02-28T10:50:32.100Z,33.50
2019-02-28T10:51:38.084Z,32.90
2019-02-28T10:52:30.653Z,33.50
2019-02-28T10:53:29.630Z,33.60
2019-02-28T10:54:28.928Z,33.50
2019-02-28T10:55:33.552Z,34.30
2019-02-28T10:56:31.722Z,34.50
2019-02-28T10:57:29.538Z,33.60
2019-02-28T10:58:29.362Z,34.70
2019-02-28T10:59:29.486Z,34.40
2019-02-28T11:00:29.500Z,34.10
2019-02-28T11:01:28.845Z,35.00
2019-02-28T11:02:28.888Z,34.70
2019-02-28T11:03:32.271Z,34.40
2019-02-28T11:04:33.571Z,35.40
2019-02-28T11:05:29.243Z,35.50
2019-02-28T11:06:29.120Z,33.20
2019-02-28T11:07:28.820Z,30.90
2019-02-28T11:08:28.808Z,34.90
2019-02-28T11:09:28.841Z,36.00
2019-02-28T11:10:28.932Z,36.20
2019-02-28T11:11:28.741Z,37.30
2019-02-28T11:12:28.832Z,36.50
2019-02-28T11:13:32.192Z,38.10
2019-02-28T11:14:28.761Z,36.60
2019-02-28T11:15:28.693Z,35.60
2019-02-28T11:16:28.676Z,37.60
2019-02-28T11:17:30.410Z,38.30
2019-02-28T11:18:28.683Z,38.20
2019-02-28T11:19:28.663Z,36.20
2019-02-28T11:20:28.866Z,35.40
2019-02-28T11:21:29.865Z,35.70
2019-02-28T11:22:28.635Z,36.00
2019-02-28T11:23:28.617Z,34.90
2019-02-28T11:24:29.135Z,34.50
2019-02-28T11:25:28.588Z,36.50
2019-02-28T11:26:29.690Z,35.50
2019-02-28T11:27:28.882Z,32.80
2019-02-28T11:28:29.337Z,34.80
2019-02-28T11:29:35.099Z,35.80
2019-02-28T11:30:28.763Z,33.80
2019-02-28T11:31:28.617Z,34.80
2019-02-28T11:32:29.337Z,35.60
2019-02-28T11:33:28.526Z,34.70
2019-02-28T11:34:28.498Z,35.00
2019-02-28T11:35:28.581Z,33.90
2019-02-28T11:36:30.488Z,35.40
2019-02-28T11:37:29.532Z,34.50
2019-02-28T11:38:28.457Z,35.90
2019-02-28T11:39:30.528Z,37.80
2019-02-28T11:40:29.476Z,35.50
2019-02-28T11:41:28.414Z,33.90
2019-02-28T11:42:29.004Z,34.20
2019-02-28T11:43:28.438Z,33.60
2019-02-28T11:44:28.399Z,34.90
2019-02-28T11:45:28.408Z,33.60
2019-02-28T11:46:28.358Z,31.80
2019-02-28T11:47:28.370Z,33.10
2019-02-28T11:48:28.856Z,34.50
2019-02-28T11:49:29.490Z,33.60
2019-02-28T11:50:28.313Z,34.00
2019-02-28T11:51:30.278Z,31.40
2019-02-28T11:52:28.286Z,32.30
2019-02-28T11:53:28.319Z,32.90
2019-02-28T11:54:28.336Z,33.80
2019-02-28T11:55:28.357Z,33.30
2019-02-28T11:56:28.811Z,32.90
2019-02-28T11:57:28.252Z,34.10
2019-02-28T11:58:30.369Z,33.20
2019-02-28T11:59:28.225Z,34.30
2019-02-28T12:00:28.273Z,33.00
2019-02-28T12:01:28.261Z,33.10
2019-02-28T12:02:28.283Z,34.20
2019-02-28T12:03:28.211Z,33.60
2019-02-28T12:04:28.237Z,32.60
2019-02-28T12:05:28.163Z,32.90
2019-02-28T12:06:28.159Z,33.20
2019-02-28T12:07:28.826Z,32.10
2019-02-28T12:08:29.044Z,34.80
2019-02-28T12:09:29.491Z,31.80
2019-02-28T12:10:28.126Z,32.80
2019-02-28T12:11:29.047Z,32.50
2019-02-28T12:12:28.079Z,30.80
2019-02-28T12:13:28.434Z,32.40
2019-02-28T12:14:29.299Z,33.10
2019-02-28T12:15:30.019Z,32.60
2019-02-28T12:16:28.062Z,32.00
2019-02-28T12:17:28.600Z,32.50
2019-02-28T12:18:28.541Z,31.10
2019-02-28T12:19:33.549Z,32.80
2019-02-28T12:20:28.008Z,31.90
2019-02-28T12:21:29.130Z,32.40
2019-02-28T12:22:28.096Z,31.50
2019-02-28T12:23:28.526Z,30.50
2019-02-28T12:24:29.453Z,32.10
2019-02-28T12:25:35.674Z,31.60
2019-02-28T12:26:28.048Z,32.40
2019-02-28T12:27:28.619Z,32.40
2019-02-28T12:28:29.387Z,34.00
2019-02-28T12:29:28.485Z,32.20
2019-02-28T12:30:29.568Z,31.70
2019-02-28T12:31:27.956Z,33.30
2019-02-28T12:32:27.891Z,30.70
2019-02-28T12:33:27.847Z,32.20
2019-02-28T12:34:28.915Z,30.20
2019-02-28T12:35:39.228Z,31.10
2019-02-28T12:36:31.715Z,30.30
2019-02-28T12:37:28.673Z,31.50
2019-02-28T12:38:30.811Z,30.80
2019-02-28T12:39:29.347Z,31.20
2019-02-28T12:40:28.998Z,32.30
2019-02-28T12:41:27.802Z,29.80
2019-02-28T12:42:28.277Z,28.20
2019-02-28T12:43:30.671Z,29.70
2019-02-28T12:44:29.317Z,30.90
2019-02-28T12:45:28.485Z,31.10
2019-02-28T12:46:31.782Z,29.60
2019-02-28T12:47:29.671Z,32.30
2019-02-28T12:48:27.697Z,31.50
2019-02-28T12:49:27.757Z,30.70
2019-02-28T12:50:29.479Z,30.80
2019-02-28T12:51:27.665Z,31.30
2019-02-28T12:52:27.705Z,30.00
2019-02-28T12:53:27.702Z,31.30
2019-02-28T12:54:30.307Z,30.70
2019-02-28T12:55:28.622Z,28.90
2019-02-28T12:56:27.607Z,31.30
2019-02-28T12:57:27.649Z,29.80